Phillipsburg, Ohio
Current Conditions -  °F | °C
As of 11:56 PM on Friday 21 Nov 2014 (Local Time) from KDAY Reporting Station
Clear Clear  
Wind Chill: 13°   Ceiling: Unl
Heat Index: 22°   Visibility: 10mi
Dew Point: 13°   Wind: 8mph
Humidity: 68%   Direction: 150°SSE
Pressure: 30.36"   Gusts: NA
Location:  39.9°N, 84.4°W
Report Text: KDAY 220456Z 15007KT 10SM CLR M06/M11 A3036 RMK AO2 SLP295 T10561106 410111111
Loading
Personal Weather Stations






























Interactive Weather Map New forecast layout! Learn more

10-Day Weather Forecast

Advertisements
Track Severe Weather on mobile